Time;durP1;ratioP1;P1;durP2;ratioP2;P2;SDS_P1;SDS_P2;PMS_P1;PMS_P2;Temp;Humidity;BMP_temperature;BMP_pressure;BME280_temperature;BME280_humidity;BME280_pressure;Samples;Min_cycle;Max_cycle;Signal;HPM_P1;HPM_P2
2022/02/24 00:00:38;;;;;;;;;;;;;;;22.27;41.00;101493.16;5041264;28;4119;-65
2022/02/24 00:03:04;;;;;;;;;;;;;;;22.25;41.17;101495.94;5040844;28;4227;-64
2022/02/24 00:05:31;;;;;;;;;;;;;;;22.25;41.22;101498.09;5040068;28;4146;-64
2022/02/24 00:07:59;;;;;;;;;;;;;;;22.24;41.14;101505.22;5042669;28;6326;-64
2022/02/24 00:10:25;;;;;;;;;;;;;;;22.23;41.26;101497.97;5042428;28;4352;-64
2022/02/24 00:12:51;;;;;;;;;;;;;;;22.22;41.36;101496.47;5042283;28;4215;-65
2022/02/24 00:15:18;;;;;;;;;;;;;;;22.18;41.46;101489.09;5040250;28;4223;-64
2022/02/24 00:17:44;;;;;;;;;;;;;;;22.21;41.12;101492.09;5037344;28;4141;-65
2022/02/24 00:20:11;;;;;;;;;;;;;;;22.20;41.09;101487.72;5034326;28;4239;-65
2022/02/24 00:22:37;;;;;;;;;;;;;;;22.17;41.11;101496.28;5033684;28;4349;-64
2022/02/24 00:25:05;;;;;;;;;;;;;;;22.20;41.20;101499.25;5039672;28;4186;-65
2022/02/24 00:27:31;;;;;;;;;;;;;;;22.21;41.04;101494.97;5033616;28;6507;-64
2022/02/24 00:30:00;;;;;;;;;;;;;;;22.18;41.15;101483.31;5054811;28;4222;-64
2022/02/24 00:32:26;;;;;;;;;;;;;;;22.19;41.05;101486.94;5039036;28;4381;-64
2022/02/24 00:34:53;;;;;;;;;;;;;;;22.17;41.17;101496.28;5034067;28;4194;-65
2022/02/24 00:37:19;;;;;;;;;;;;;;;22.15;41.13;101475.97;5037676;28;4379;-66
2022/02/24 00:39:45;;;;;;;;;;;;;;;22.15;41.20;101480.97;5039142;28;4157;-64
2022/02/24 00:42:12;;;;;;;;;;;;;;;22.13;41.00;101478.75;5043272;28;4165;-64
2022/02/24 00:44:38;;;;;;;;;;;;;;;22.15;41.13;101478.09;5039618;28;5205;-64
2022/02/24 00:47:05;;;;;;;;;;;;;;;22.14;41.21;101480.22;5039895;28;4315;-64
2022/02/24 00:49:31;;;;;;;;;;;;;;;22.14;41.21;101479.50;5036986;28;4214;-64
2022/02/24 00:51:57;;;;;;;;;;;;;;;22.14;40.83;101477.34;5037795;28;5273;-64
2022/02/24 00:54:24;;;;;;;;;;;;;;;22.13;40.97;101464.34;5038485;28;5222;-64
2022/02/24 00:56:50;;;;;;;;;;;;;;;22.14;41.09;101465.06;5042380;28;4226;-64
2022/02/24 00:59:16;;;;;;;;;;;;;;;22.13;41.16;101466.47;5040564;28;4167;-64
2022/02/24 01:01:43;;;;;;;;;;;;;;;22.12;41.03;101448.41;5035577;28;4232;-65
2022/02/24 01:04:10;;;;;;;;;;;;;;;22.12;41.16;101448.41;5035915;28;5300;-64
2022/02/24 01:06:36;;;;;;;;;;;;;;;22.10;41.03;101444.69;5037050;28;5218;-64
2022/02/24 01:09:03;;;;;;;;;;;;;;;22.09;41.17;101437.44;5037763;28;5375;-64
2022/02/24 01:11:29;;;;;;;;;;;;;;;22.06;41.28;101430.81;5040599;28;6094;-65
2022/02/24 01:13:55;;;;;;;;;;;;;;;22.07;40.90;101435.19;5036896;28;4218;-64
2022/02/24 01:16:22;;;;;;;;;;;;;;;22.08;41.05;101433.03;5036866;28;5277;-65
2022/02/24 01:18:48;;;;;;;;;;;;;;;22.08;41.04;101428.03;5037799;28;4271;-65
2022/02/24 01:21:14;;;;;;;;;;;;;;;22.07;40.95;101423.66;5032257;28;4025;-65
2022/02/24 01:23:41;;;;;;;;;;;;;;;22.07;41.03;101423.66;5038355;28;4191;-64
2022/02/24 01:26:08;;;;;;;;;;;;;;;22.10;40.86;101428.13;5034664;28;4270;-64
2022/02/24 01:28:35;;;;;;;;;;;;;;;22.07;40.98;101417.88;5043249;28;4194;-64
2022/02/24 01:31:01;;;;;;;;;;;;;;;22.09;40.58;101415.09;5041938;28;4500;-65
2022/02/24 01:33:27;;;;;;;;;;;;;;;22.06;40.83;101404.09;5035776;28;4050;-65
2022/02/24 01:35:54;;;;;;;;;;;;;;;22.06;40.73;101415.63;5042808;28;4171;-65
2022/02/24 01:38:21;;;;;;;;;;;;;;;22.05;41.02;101403.38;5037081;28;4339;-65
2022/02/24 01:40:47;;;;;;;;;;;;;;;22.05;41.04;101400.47;5041681;28;4271;-64
2022/02/24 01:43:14;;;;;;;;;;;;;;;22.05;40.89;101409.13;5045381;28;4123;-65
2022/02/24 01:45:40;;;;;;;;;;;;;;;22.05;40.73;101402.63;5037440;28;4167;-64
2022/02/24 01:48:07;;;;;;;;;;;;;;;22.04;40.65;101404.03;5043692;28;4217;-64
2022/02/24 01:50:33;;;;;;;;;;;;;;;22.02;40.91;101387.38;5040109;28;4170;-64
2022/02/24 01:52:59;;;;;;;;;;;;;;;22.00;40.72;101389.41;5039609;28;4307;-64
2022/02/24 01:55:29;;;;;;;;;;;;;;;22.00;40.82;101390.16;5042135;28;5295;-64
2022/02/24 01:57:55;;;;;;;;;;;;;;;21.98;40.98;101372.00;5041910;28;4219;-64
2022/02/24 02:00:21;;;;;;;;;;;;;;;21.98;40.63;101380.66;5037321;28;5243;-65
2022/02/24 02:02:48;;;;;;;;;;;;;;;21.96;40.93;101376.25;5038680;28;4248;-65
2022/02/24 02:05:16;;;;;;;;;;;;;;;21.96;40.98;101372.66;5032505;28;4245;-65
2022/02/24 02:07:42;;;;;;;;;;;;;;;21.97;40.67;101368.38;5042274;28;5353;-65
2022/02/24 02:10:08;;;;;;;;;;;;;;;21.94;41.02;101363.91;5040586;28;5263;-64
2022/02/24 02:12:44;;;;;;;;;;;;;;;21.94;40.85;101356.00;5039943;28;4349;-65
2022/02/24 02:15:11;;;;;;;;;;;;;;;21.94;41.01;101346.59;5039822;28;4433;-65
2022/02/24 02:17:37;;;;;;;;;;;;;;;21.94;40.84;101352.34;5042796;28;4179;-64
2022/02/24 02:20:03;;;;;;;;;;;;;;;21.92;41.12;101343.63;5029898;28;4235;-64
2022/02/24 02:22:30;;;;;;;;;;;;;;;21.92;40.94;101340.72;5035761;28;4193;-64
2022/02/24 02:24:57;;;;;;;;;;;;;;;21.90;41.09;101335.63;5037884;28;5537;-65
2022/02/24 02:27:24;;;;;;;;;;;;;;;21.91;41.13;101324.84;5037184;28;4308;-65
2022/02/24 02:29:50;;;;;;;;;;;;;;;21.91;40.96;101330.59;5033076;28;4229;-64
2022/02/24 02:32:16;;;;;;;;;;;;;;;21.89;41.24;101325.47;5041747;28;4249;-65
2022/02/24 02:34:43;;;;;;;;;;;;;;;21.89;41.05;101327.63;5036499;28;4364;-64
2022/02/24 02:37:10;;;;;;;;;;;;;;;21.88;40.96;101321.13;5041476;28;4160;-65
2022/02/24 02:39:36;;;;;;;;;;;;;;;21.87;41.13;101313.84;5040611;28;4264;-64
2022/02/24 02:42:02;;;;;;;;;;;;;;;21.87;41.14;101301.56;5032467;28;4062;-64
2022/02/24 02:44:29;;;;;;;;;;;;;;;21.85;41.02;101301.47;5039399;28;4249;-64
2022/02/24 02:46:55;;;;;;;;;;;;;;;21.83;41.00;101296.38;5044744;28;4162;-65
2022/02/24 02:49:22;;;;;;;;;;;;;;;21.81;41.19;101286.88;5040500;28;4173;-64
2022/02/24 02:51:49;;;;;;;;;;;;;;;21.81;41.20;101286.88;5037468;28;4275;-65
2022/02/24 02:54:16;;;;;;;;;;;;;;;21.81;41.05;101286.88;5040138;28;3997;-65
2022/02/24 02:56:43;;;;;;;;;;;;;;;21.82;41.08;101283.34;5038377;28;4319;-65
2022/02/24 02:59:10;;;;;;;;;;;;;;;21.82;41.10;101277.56;5041802;28;4239;-65
2022/02/24 03:01:36;;;;;;;;;;;;;;;21.81;40.86;101275.34;5041020;28;4234;-65
2022/02/24 03:04:02;;;;;;;;;;;;;;;21.81;41.07;101267.44;5041655;28;4134;-64
2022/02/24 03:06:31;;;;;;;;;;;;;;;21.81;40.81;101263.81;5043301;28;4210;-64
2022/02/24 03:08:57;;;;;;;;;;;;;;;21.79;41.33;101255.81;5034532;28;4136;-64
2022/02/24 03:11:24;;;;;;;;;;;;;;;21.79;41.06;101250.06;5033579;28;4483;-65
2022/02/24 03:13:51;;;;;;;;;;;;;;;21.81;41.17;101246.53;5040089;28;6324;-65
2022/02/24 03:16:17;;;;;;;;;;;;;;;21.80;41.03;101245.03;5039567;28;4238;-64
2022/02/24 03:18:43;;;;;;;;;;;;;;;21.79;40.85;101232.03;5033397;28;4233;-64
2022/02/24 03:21:11;;;;;;;;;;;;;;;21.78;40.98;101230.50;5037262;28;4063;-65
2022/02/24 03:23:39;;;;;;;;;;;;;;;21.78;40.96;101225.50;5039624;28;4201;-64
2022/02/24 03:26:05;;;;;;;;;;;;;;;21.77;41.20;101223.28;5033827;28;5301;-64
2022/02/24 03:28:31;;;;;;;;;;;;;;;21.77;40.91;101217.50;5035446;28;4202;-64
2022/02/24 03:30:58;;;;;;;;;;;;;;;21.76;40.93;101222.50;5041994;28;4427;-64
2022/02/24 03:33:24;;;;;;;;;;;;;;;21.75;41.05;101221.78;5040347;28;4286;-64
2022/02/24 03:35:50;;;;;;;;;;;;;;;21.76;41.09;101213.84;5039902;28;5523;-64
2022/02/24 03:38:17;;;;;;;;;;;;;;;21.73;41.09;101218.06;5030716;28;5362;-64
2022/02/24 03:40:43;;;;;;;;;;;;;;;21.73;40.95;101213.03;5036143;28;4154;-64
2022/02/24 03:43:09;;;;;;;;;;;;;;;21.72;41.01;101217.31;5039893;28;4320;-65
2022/02/24 03:45:36;;;;;;;;;;;;;;;21.73;40.98;101209.41;5038262;28;5255;-64
2022/02/24 03:48:02;;;;;;;;;;;;;;;21.74;40.84;101210.91;5041590;28;4056;-65
2022/02/24 03:50:28;;;;;;;;;;;;;;;21.73;40.96;101201.50;5038202;28;4160;-65
2022/02/24 03:52:55;;;;;;;;;;;;;;;21.74;41.01;101205.88;5033884;28;5391;-65
2022/02/24 03:55:21;;;;;;;;;;;;;;;21.74;40.85;101197.22;5039737;28;5360;-65
2022/02/24 03:57:48;;;;;;;;;;;;;;;21.72;41.07;101200.03;5037941;28;4199;-65
2022/02/24 04:00:14;;;;;;;;;;;;;;;21.74;41.12;101197.22;5040029;28;5318;-65
2022/02/24 04:02:41;;;;;;;;;;;;;;;21.73;40.91;101189.97;5038083;28;4214;-65
2022/02/24 04:05:09;;;;;;;;;;;;;;;21.73;41.12;101187.09;5035758;28;4214;-65
2022/02/24 04:07:36;;;;;;;;;;;;;;;21.74;41.01;101185.69;5036399;28;4245;-65
2022/02/24 04:10:04;;;;;;;;;;;;;;;21.74;41.11;101179.94;5039656;28;4184;-65
2022/02/24 04:12:30;;;;;;;;;;;;;;;21.73;41.07;101178.44;5034895;28;5468;-65
2022/02/24 04:14:58;;;;;;;;;;;;;;;21.72;41.13;101165.44;5042159;28;4244;-65
2022/02/24 04:17:24;;;;;;;;;;;;;;;21.71;41.12;101166.81;5036769;28;5309;-65
2022/02/24 04:19:50;;;;;;;;;;;;;;;21.69;41.05;101166.75;5034456;28;4315;-65
2022/02/24 04:22:17;;;;;;;;;;;;;;;21.70;41.16;101161.72;5036838;28;4256;-65
2022/02/24 04:24:43;;;;;;;;;;;;;;;21.70;40.91;101165.34;5037382;28;4176;-65
2022/02/24 04:27:10;;;;;;;;;;;;;;;21.69;40.93;101160.97;5034380;28;4240;-65
2022/02/24 04:29:37;;;;;;;;;;;;;;;21.69;40.97;101172.50;5033905;28;4220;-65
2022/02/24 04:32:04;;;;;;;;;;;;;;;21.67;41.16;101163.75;5035699;28;4224;-65
2022/02/24 04:34:30;;;;;;;;;;;;;;;21.67;41.27;101163.75;5041120;28;4378;-64
2022/02/24 04:36:56;;;;;;;;;;;;;;;21.62;40.99;101164.22;5038871;28;4205;-64
2022/02/24 04:39:23;;;;;;;;;;;;;;;21.62;40.87;101162.06;5032787;28;5379;-64
2022/02/24 04:41:49;;;;;;;;;;;;;;;21.63;40.67;101154.94;5034398;28;5324;-63
2022/02/24 04:44:16;;;;;;;;;;;;;;;21.64;40.83;101159.28;5033045;28;4235;-64
2022/02/24 04:46:42;;;;;;;;;;;;;;;21.65;41.07;101143.50;5039197;28;4159;-63
2022/02/24 04:49:09;;;;;;;;;;;;;;;21.65;41.07;101134.84;5037660;28;4239;-64
2022/02/24 04:51:37;;;;;;;;;;;;;;;21.65;41.26;101126.19;5033285;28;4203;-63
2022/02/24 04:54:03;;;;;;;;;;;;;;;21.67;41.20;101132.06;5037019;28;4203;-64
2022/02/24 04:56:30;;;;;;;;;;;;;;;21.68;41.34;101124.88;5042823;28;6459;-63
2022/02/24 04:58:56;;;;;;;;;;;;;;;21.68;41.40;101122.00;5036715;28;4307;-63
2022/02/24 05:01:23;;;;;;;;;;;;;;;21.69;41.54;101116.97;5032308;28;4249;-64
2022/02/24 05:03:49;;;;;;;;;;;;;;;21.69;41.57;101120.63;5037172;28;4232;-64
2022/02/24 05:06:18;;;;;;;;;;;;;;;21.67;41.71;101111.88;5037952;28;4276;-64
2022/02/24 05:08:44;;;;;;;;;;;;;;;21.67;41.54;101109.00;5036994;28;5138;-64
2022/02/24 05:11:11;;;;;;;;;;;;;;;21.68;41.75;101113.38;5038343;28;4227;-64
2022/02/24 05:13:37;;;;;;;;;;;;;;;21.67;41.77;101111.88;5038723;28;4096;-64
2022/02/24 05:16:04;;;;;;;;;;;;;;;21.67;41.63;101114.00;5038939;28;4222;-63
2022/02/24 05:18:31;;;;;;;;;;;;;;;21.67;41.74;101117.66;5038767;28;4185;-64
2022/02/24 05:20:57;;;;;;;;;;;;;;;21.67;41.90;101111.88;5036586;28;5485;-64
2022/02/24 05:23:24;;;;;;;;;;;;;;;21.62;41.88;101101.56;5042657;28;4169;-64
2022/02/24 05:25:50;;;;;;;;;;;;;;;21.66;41.75;101110.38;5040110;28;4146;-64
2022/02/24 05:28:16;;;;;;;;;;;;;;;21.65;41.62;101106.03;5042974;28;5254;-64
2022/02/24 05:30:43;;;;;;;;;;;;;;;21.66;41.82;101104.63;5036653;28;4332;-63
2022/02/24 05:33:10;;;;;;;;;;;;;;;21.65;41.72;101108.16;5038887;28;5263;-64
2022/02/24 05:35:36;;;;;;;;;;;;;;;21.63;42.08;101100.16;5043111;28;4281;-64
2022/02/24 05:38:03;;;;;;;;;;;;;;;21.63;42.09;101100.16;5034137;28;4218;-64
2022/02/24 05:40:29;;;;;;;;;;;;;;;21.65;41.91;101096.66;5041981;28;4187;-64
2022/02/24 05:42:58;;;;;;;;;;;;;;;21.64;41.77;101089.38;5043633;28;4245;-64
2022/02/24 05:45:24;;;;;;;;;;;;;;;21.64;41.83;101080.72;5043337;28;5345;-64
2022/02/24 05:47:51;;;;;;;;;;;;;;;21.62;41.86;101081.38;5036415;28;4561;-64
2022/02/24 05:50:17;;;;;;;;;;;;;;;21.64;41.76;101066.31;5033468;28;4276;-63
2022/02/24 05:52:48;;;;;;;;;;;;;;;21.66;42.84;101075.06;5028481;28;4224;-70
2022/02/24 05:55:14;;;;;;;;;;;;;;;21.68;42.48;101084.53;5026395;28;4264;-70
2022/02/24 05:57:42;;;;;;;;;;;;;;;21.71;42.76;101074.56;5032351;28;5194;-69
2022/02/24 06:00:09;;;;;;;;;;;;;;;21.70;42.92;101076.00;5035113;28;4277;-69
2022/02/24 06:02:38;;;;;;;;;;;;;;;21.67;42.83;101065.78;5034568;28;4503;-69
2022/02/24 06:05:05;;;;;;;;;;;;;;;21.65;42.92;101067.81;5033426;28;5113;-69
2022/02/24 06:07:31;;;;;;;;;;;;;;;21.59;42.76;101071.16;5026403;28;4197;-70
2022/02/24 06:09:58;;;;;;;;;;;;;;;21.64;42.91;101067.06;5037069;28;5329;-68
2022/02/24 06:12:25;;;;;;;;;;;;;;;21.61;42.63;101068.38;5033961;28;3963;-70
2022/02/24 06:14:51;;;;;;;;;;;;;;;21.57;42.10;101067.44;5031825;28;4062;-68
2022/02/24 06:17:18;;;;;;;;;;;;;;;21.51;41.06;101062.19;5032739;28;4482;-67
2022/02/24 06:19:45;;;;;;;;;;;;;;;21.51;40.55;101065.78;5034200;28;4188;-64
2022/02/24 06:22:11;;;;;;;;;;;;;;;21.76;40.93;101061.09;5031125;28;4365;-63
2022/02/24 06:24:38;;;;;;;;;;;;;;;21.79;39.47;101056.91;5023323;28;4153;-61
2022/02/24 06:27:04;;;;;;;;;;;;;;;21.59;40.21;101056.75;5034610;28;4156;-64
2022/02/24 06:29:31;;;;;;;;;;;;;;;21.60;39.76;101048.84;5037327;28;5373;-63
2022/02/24 06:31:57;;;;;;;;;;;;;;;21.79;38.89;101041.78;5037411;28;4237;-61
2022/02/24 06:34:23;;;;;;;;;;;;;;;21.87;38.52;101039.22;5038193;28;4342;-63
2022/02/24 06:36:50;;;;;;;;;;;;;;;21.84;38.41;101029.75;5036720;28;4196;-63
2022/02/24 06:39:16;;;;;;;;;;;;;;;21.91;38.15;101033.63;5042724;28;4147;-61
2022/02/24 06:41:42;;;;;;;;;;;;;;;21.93;36.95;101027.97;5037003;28;4281;-62
2022/02/24 06:44:09;;;;;;;;;;;;;;;21.94;36.46;101026.53;5036828;28;4485;-60
2022/02/24 06:46:37;;;;;;;;;;;;;;;21.91;36.66;101013.44;5031143;28;4560;-61
2022/02/24 06:49:03;;;;;;;;;;;;;;;22.03;36.78;101030.53;5029190;28;4121;-62
2022/02/24 06:51:31;;;;;;;;;;;;;;;22.14;37.19;101024.53;5031689;28;4201;-62
2022/02/24 06:54:00;;;;;;;;;;;;;;;22.13;36.95;101030.97;5033556;28;4214;-62
2022/02/24 06:56:26;;;;;;;;;;;;;;;22.10;37.28;101020.72;5035739;28;5398;-63
2022/02/24 06:58:52;;;;;;;;;;;;;;;22.10;37.11;101017.84;5036848;28;4048;-62
2022/02/24 07:01:19;;;;;;;;;;;;;;;22.07;37.14;101014.13;5044303;28;4249;-63
2022/02/24 07:03:45;;;;;;;;;;;;;;;22.07;37.32;101017.00;5036724;28;4183;-62
2022/02/24 07:06:12;;;;;;;;;;;;;;;22.04;37.11;101008.94;5039666;28;5349;-61
2022/02/24 07:08:39;;;;;;;;;;;;;;;21.90;37.02;101006.22;5045442;28;4281;-63
2022/02/24 07:11:05;;;;;;;;;;;;;;;21.85;37.56;101007.41;5035975;28;4455;-65
2022/02/24 07:13:32;;;;;;;;;;;;;;;21.91;37.89;101013.44;5039249;28;4166;-66
2022/02/24 07:16:20;;;;;;;;;;;;;;;21.97;38.25;101010.84;5042327;28;4143;-66
2022/02/24 07:18:46;;;;;;;;;;;;;;;22.00;38.60;101000.88;5039181;28;4133;-63
2022/02/24 07:21:13;;;;;;;;;;;;;;;22.06;38.71;100992.47;5041552;28;4423;-64
2022/02/24 07:23:39;;;;;;;;;;;;;;;22.06;39.16;101000.34;5037390;28;4208;-63
2022/02/24 07:26:09;;;;;;;;;;;;;;;21.78;39.07;100997.03;5036582;28;4203;-61
2022/02/24 07:28:36;;;;;;;;;;;;;;;21.82;38.77;101002.97;5031749;28;5315;-66
2022/02/24 07:31:02;;;;;;;;;;;;;;;21.79;39.16;101001.41;5039081;28;4163;-66
2022/02/24 07:33:28;;;;;;;;;;;;;;;21.74;39.86;100988.97;5036896;28;5313;-65
2022/02/24 07:35:55;;;;;;;;;;;;;;;21.75;39.46;100985.41;5038279;28;4625;-70
2022/02/24 07:38:21;;;;;;;;;;;;;;;21.95;39.40;100979.75;5037789;28;4309;-69
2022/02/24 07:40:48;;;;;;;;;;;;;;;22.05;39.57;100988.09;5037888;28;4177;-68
2022/02/24 07:43:14;;;;;;;;;;;;;;;22.06;39.39;100985.94;5037551;28;4174;-65
2022/02/24 07:45:40;;;;;;;;;;;;;;;22.09;39.60;100976.72;5039603;28;5260;-62
2022/02/24 07:48:07;;;;;;;;;;;;;;;22.14;39.63;100963.94;5038570;28;4379;-62
2022/02/24 07:50:33;;;;;;;;;;;;;;;22.20;39.89;100956.97;5037019;28;4213;-60
2022/02/24 07:53:01;;;;;;;;;;;;;;;22.17;40.07;100959.00;5038822;28;4124;-61
2022/02/24 07:55:28;;;;;;;;;;;;;;;22.21;40.16;100958.44;5036902;28;4298;-60
2022/02/24 07:57:54;;;;;;;;;;;;;;;22.21;40.03;100958.44;5039505;28;4234;-60
2022/02/24 08:00:21;;;;;;;;;;;;;;;22.24;39.68;100952.13;5040671;28;4351;-62
2022/02/24 08:02:47;;;;;;;;;;;;;;;22.17;39.81;100936.69;5041052;28;4231;-60
2022/02/24 08:05:14;;;;;;;;;;;;;;;22.17;39.87;100939.56;5034091;28;4246;-59
2022/02/24 08:07:40;;;;;;;;;;;;;;;22.18;40.21;100931.66;5037933;28;4359;-58
2022/02/24 08:10:06;;;;;;;;;;;;;;;22.20;40.16;100933.88;5042266;28;4313;-59
2022/02/24 08:12:39;;;;;;;;;;;;;;;22.21;40.16;100929.59;5037428;28;5309;-59
2022/02/24 08:15:15;;;;;;;;;;;;;;;22.26;39.91;100919.72;5033011;28;4238;-59
2022/02/24 08:17:41;;;;;;;;;;;;;;;22.24;40.04;100914.63;5041603;28;4176;-59
2022/02/24 08:20:08;;;;;;;;;;;;;;;22.24;40.24;100910.97;5034646;28;4072;-63
2022/02/24 08:22:34;;;;;;;;;;;;;;;22.18;40.07;100909.31;5040908;28;5162;-59
2022/02/24 08:25:01;;;;;;;;;;;;;;;22.18;40.16;100897.78;5039002;28;4233;-61
2022/02/24 08:27:28;;;;;;;;;;;;;;;22.17;40.17;100899.19;5036628;28;4221;-60
2022/02/24 08:29:56;;;;;;;;;;;;;;;22.19;40.51;100892.75;5036785;28;4195;-60
2022/02/24 08:32:24;;;;;;;;;;;;;;;22.17;40.45;100896.31;5041495;28;4297;-59
2022/02/24 08:34:50;;;;;;;;;;;;;;;22.25;40.41;100895.19;5040587;28;4176;-58
2022/02/24 08:37:18;;;;;;;;;;;;;;;22.23;40.54;100880.66;5043752;28;5292;-59
2022/02/24 08:39:44;;;;;;;;;;;;;;;22.24;40.37;100882.13;5040496;28;4187;-59
2022/02/24 08:42:10;;;;;;;;;;;;;;;22.21;40.64;100874.78;5038700;28;4634;-64
2022/02/24 08:44:39;;;;;;;;;;;;;;;22.24;40.50;100867.72;5033275;28;5576;-63
2022/02/24 08:47:25;;;;;;;;;;;;;;;22.26;40.38;100864.91;5032860;28;4146;-64
2022/02/24 08:49:51;;;;;;;;;;;;;;;22.22;40.65;100864.75;5031523;28;4231;-64
2022/02/24 08:52:38;;;;;;;;;;;;;;;22.27;40.36;100869.28;5040158;28;4093;-58
2022/02/24 08:55:04;;;;;;;;;;;;;;;22.09;40.96;100852.72;5029642;28;4240;-60
2022/02/24 08:57:31;;;;;;;;;;;;;;;22.08;41.17;100854.13;5034225;28;4224;-59
2022/02/24 08:59:57;;;;;;;;;;;;;;;22.15;41.10;100852.97;5040477;28;4245;-59
2022/02/24 09:02:23;;;;;;;;;;;;;;;22.20;41.09;100841.59;5042514;28;4163;-60
2022/02/24 09:04:50;;;;;;;;;;;;;;;22.22;40.51;100844.56;5039614;28;4546;-59
2022/02/24 09:07:16;;;;;;;;;;;;;;;22.20;40.72;100835.81;5040583;28;4710;-61
2022/02/24 09:09:43;;;;;;;;;;;;;;;22.17;40.85;100835.75;5040343;28;4156;-62
2022/02/24 09:12:09;;;;;;;;;;;;;;;22.16;40.78;100837.13;5041969;28;5288;-62
2022/02/24 09:14:36;;;;;;;;;;;;;;;22.17;40.92;100829.97;5038788;28;4267;-62
2022/02/24 09:17:02;;;;;;;;;;;;;;;22.17;40.89;100823.44;5036018;28;5222;-61
2022/02/24 09:19:29;;;;;;;;;;;;;;;22.16;40.86;100830.63;5033511;28;4218;-60
2022/02/24 09:21:55;;;;;;;;;;;;;;;22.23;40.60;100817.22;5036154;28;4250;-59
2022/02/24 09:24:22;;;;;;;;;;;;;;;22.28;40.46;100819.56;5032006;28;4142;-59
2022/02/24 09:26:48;;;;;;;;;;;;;;;22.32;40.25;100830.53;5037884;28;4233;-60
2022/02/24 09:29:15;;;;;;;;;;;;;;;22.34;40.12;100824.84;5037553;28;4213;-60
2022/02/24 09:31:41;;;;;;;;;;;;;;;22.31;40.57;100812.50;5034162;28;4492;-60
2022/02/24 09:34:07;;;;;;;;;;;;;;;22.28;40.55;100801.53;5034574;28;4228;-60
2022/02/24 09:36:34;;;;;;;;;;;;;;;22.28;40.63;100807.31;5036852;28;5437;-61
2022/02/24 09:39:00;;;;;;;;;;;;;;;22.28;40.30;100802.28;5033767;28;4198;-61
2022/02/24 09:41:27;;;;;;;;;;;;;;;22.32;40.28;100793.03;5035249;28;4236;-60
2022/02/24 09:43:53;;;;;;;;;;;;;;;22.37;40.25;100786.00;5037737;28;5441;-60
2022/02/24 09:46:20;;;;;;;;;;;;;;;22.42;40.12;100787.63;5036198;28;6403;-61
2022/02/24 09:48:46;;;;;;;;;;;;;;;22.42;40.38;100776.09;5036736;28;4420;-58
2022/02/24 09:51:16;;;;;;;;;;;;;;;22.46;40.32;100770.47;5034539;28;4174;-59
2022/02/24 09:53:43;;;;;;;;;;;;;;;22.45;40.17;100769.00;5033252;28;5221;-60
2022/02/24 09:56:14;;;;;;;;;;;;;;;22.38;40.10;100756.50;5033429;28;4259;-59
2022/02/24 09:58:43;;;;;;;;;;;;;;;22.49;40.07;100754.72;5038675;28;4286;-59
2022/02/24 10:01:12;;;;;;;;;;;;;;;22.51;40.21;100748.28;5038190;28;4189;-59
2022/02/24 10:03:42;;;;;;;;;;;;;;;22.53;40.18;100751.22;5031259;28;5198;-59
2022/02/24 10:06:09;;;;;;;;;;;;;;;22.53;39.95;100751.22;5037403;28;4251;-59
2022/02/24 10:08:41;;;;;;;;;;;;;;;22.52;40.20;100744.72;5036314;28;5460;-59
2022/02/24 10:11:20;;;;;;;;;;;;;;;22.51;40.15;100740.34;5034653;28;4155;-59
2022/02/24 10:14:06;;;;;;;;;;;;;;;22.45;40.26;100734.38;5036040;28;4142;-59
2022/02/24 10:16:49;;;;;;;;;;;;;;;22.47;40.15;100719.28;5035861;28;4232;-59
2022/02/24 10:19:17;;;;;;;;;;;;;;;22.47;40.18;100725.03;5042228;28;4082;-58
2022/02/24 10:21:43;;;;;;;;;;;;;;;22.43;40.36;100719.88;5038824;28;4140;-59
2022/02/24 10:24:25;;;;;;;;;;;;;;;22.44;40.48;100717.72;5032719;28;4088;-61
2022/02/24 10:26:51;;;;;;;;;;;;;;;22.45;40.36;100719.97;5031898;28;4303;-61
2022/02/24 10:29:22;;;;;;;;;;;;;;;22.46;40.18;100717.81;5039274;28;4379;-61
2022/02/24 10:31:51;;;;;;;;;;;;;;;22.47;40.25;100702.72;5036382;28;4344;-61
2022/02/24 10:34:19;;;;;;;;;;;;;;;22.48;40.44;100704.19;5036417;28;4396;-61
2022/02/24 10:36:45;;;;;;;;;;;;;;;22.49;40.46;100699.16;5039463;28;4126;-61
2022/02/24 10:39:13;;;;;;;;;;;;;;;22.52;40.10;100680.50;5029859;28;6570;-63
2022/02/24 10:41:40;;;;;;;;;;;;;;;22.57;40.49;100679.25;5037960;28;4200;-63
2022/02/24 10:44:19;;;;;;;;;;;;;;;22.59;40.30;100674.28;5032711;28;4265;-63
2022/02/24 10:46:46;;;;;;;;;;;;;;;22.59;40.26;100671.38;5034095;28;4160;-63
2022/02/24 10:49:16;;;;;;;;;;;;;;;22.55;40.20;100662.59;5033084;28;4307;-60
2022/02/24 10:51:42;;;;;;;;;;;;;;;22.56;40.21;100658.31;5031491;28;4283;-59
2022/02/24 10:54:09;;;;;;;;;;;;;;;22.52;40.10;100652.41;5030506;28;4087;-60
2022/02/24 10:56:39;;;;;;;;;;;;;;;22.56;40.38;100663.31;5030721;28;4204;-59
2022/02/24 10:59:05;;;;;;;;;;;;;;;22.62;40.26;100659.91;5036032;28;4226;-59
2022/02/24 11:01:32;;;;;;;;;;;;;;;22.62;40.16;100654.16;5035973;28;4278;-59
2022/02/24 11:03:59;;;;;;;;;;;;;;;22.62;40.35;100654.88;5033262;28;5320;-60
2022/02/24 11:06:26;;;;;;;;;;;;;;;22.65;40.20;100647.03;5036755;28;4575;-59
2022/02/24 11:08:53;;;;;;;;;;;;;;;22.66;40.34;100642.75;5034949;28;5348;-57
2022/02/24 11:11:28;;;;;;;;;;;;;;;22.63;40.49;100638.28;5031788;28;4204;-59
2022/02/24 11:13:55;;;;;;;;;;;;;;;22.59;40.50;100628.09;5033351;28;4143;-58
2022/02/24 11:16:21;;;;;;;;;;;;;;;22.37;40.62;100624.47;5031648;28;4236;-58
2022/02/24 11:18:48;;;;;;;;;;;;;;;22.31;40.97;100618.47;5034381;28;4303;-58
2022/02/24 11:21:15;;;;;;;;;;;;;;;22.26;41.12;100614.69;5033762;28;4241;-58
2022/02/24 11:23:42;;;;;;;;;;;;;;;22.21;41.13;100610.22;5032054;28;5496;-58
2022/02/24 11:26:17;;;;;;;;;;;;;;;22.23;40.94;100603.78;5024868;28;4230;-62
2022/02/24 11:28:45;;;;;;;;;;;;;;;22.21;41.09;100600.78;5031258;28;6246;-61
2022/02/24 11:31:16;;;;;;;;;;;;;;;22.21;41.32;100595.03;5021507;28;4002;-61
2022/02/24 11:33:42;;;;;;;;;;;;;;;22.21;41.26;100592.16;5026836;28;4236;-61
2022/02/24 11:36:14;;;;;;;;;;;;;;;22.18;41.35;100583.41;5029845;28;4071;-61
2022/02/24 11:38:40;;;;;;;;;;;;;;;22.18;41.53;100583.41;5032621;28;4453;-61
2022/02/24 11:41:07;;;;;;;;;;;;;;;22.18;41.44;100582.69;5024458;28;4252;-63
2022/02/24 11:43:34;;;;;;;;;;;;;;;22.20;41.31;100573.38;5020777;28;4484;-63
2022/02/24 11:46:04;;;;;;;;;;;;;;;22.30;41.23;100567.97;5030223;28;4056;-63
2022/02/24 11:48:34;;;;;;;;;;;;;;;22.34;41.27;100562.34;5025445;28;4244;-64
2022/02/24 11:51:01;;;;;;;;;;;;;;;22.38;41.46;100550.94;5027152;28;4212;-61
2022/02/24 11:53:27;;;;;;;;;;;;;;;22.44;41.17;100547.50;5025400;28;4245;-61
2022/02/24 11:56:15;;;;;;;;;;;;;;;22.43;41.29;100535.22;5034265;28;4232;-59
2022/02/24 11:58:42;;;;;;;;;;;;;;;22.44;41.45;100530.19;5030359;28;4115;-62
2022/02/24 12:01:09;;;;;;;;;;;;;;;22.44;41.82;100536.69;5040939;28;4227;-62
2022/02/24 12:03:49;;;;;;;;;;;;;;;22.43;42.02;100517.94;5031717;28;4143;-62
2022/02/24 12:06:16;;;;;;;;;;;;;;;22.44;42.02;100516.50;5034704;28;4225;-61
2022/02/24 12:09:01;;;;;;;;;;;;;;;22.46;42.32;100502.16;5035997;28;4179;-60
2022/02/24 12:11:28;;;;;;;;;;;;;;;22.49;42.25;100494.28;5034769;28;4240;-61
2022/02/24 12:13:55;;;;;;;;;;;;;;;22.41;42.59;100491.91;5038547;28;4232;-59
2022/02/24 12:16:23;;;;;;;;;;;;;;;22.33;43.26;100482.97;5040636;28;4229;-58
2022/02/24 12:18:49;;;;;;;;;;;;;;;22.45;43.09;100486.25;5039971;28;4215;-59
2022/02/24 12:21:32;;;;;;;;;;;;;;;22.52;42.86;100479.28;5038085;28;4203;-60
2022/02/24 12:23:58;;;;;;;;;;;;;;;22.62;42.84;100478.09;5030657;28;4195;-56
2022/02/24 12:26:34;;;;;;;;;;;;;;;22.64;42.96;100476.03;5036251;28;5296;-60
2022/02/24 12:29:26;;;;;;;;;;;;;;;22.59;42.99;100466.50;5040546;28;4291;-58
2022/02/24 12:31:57;;;;;;;;;;;;;;;22.68;42.76;100449.44;5035270;28;4235;-57
2022/02/24 12:34:26;;;;;;;;;;;;;;;22.69;42.75;100445.13;5040097;28;4223;-59
2022/02/24 12:37:07;;;;;;;;;;;;;;;22.73;42.87;100439.50;5034998;28;4338;-60
2022/02/24 12:39:34;;;;;;;;;;;;;;;22.76;42.49;100438.13;5036065;28;4212;-59
2022/02/24 12:42:05;;;;;;;;;;;;;;;22.79;42.70;100431.00;5035066;28;4119;-60
2022/02/24 12:44:31;;;;;;;;;;;;;;;22.75;42.81;100425.13;5033271;28;4087;-62
2022/02/24 12:46:58;;;;;;;;;;;;;;;22.73;42.79;100411.34;5040183;28;4563;-63
2022/02/24 12:49:24;;;;;;;;;;;;;;;22.74;42.90;100420.75;5036008;28;4290;-60